»·PEaware :: N5939V KVNY-KPSP

N5939V :: KVNY-KPSP

FLIGHT INFORMATION

Flight Status: Arrived
Operator: Privately registered:
United States
More flights under this callsign
Pilot: Anonymous 30260 (30260)
Aircraft: SOCATA TBM-900
(TBM9)
More flights by this aircraft type
Origin: KVNY Van Nuys
United States
Destination: KPSP Palm Springs Intl
United States
More flights between these airports :: More routes between these airports
Route: NUAL1 PMD V137 PSP
File this flight plan on PilotEdge
Remarks:
Altitude:
(Current/Filed)
13,000ft
Speed:
(Current/Filed)
269kts
Departed: 06-Jan-21 04:51 PM
Arrived: 06-Jan-21 05:26 PM
Distance/Time
Traveled:
101nm/0:35
Distance/Time
To Go:
Arrived

Flight Plot

Page will automatically refresh every two minutes.

Flight plan parsing failed; only flown route is shown


Map Options




Map Legend


Flown Route
Filed Route
Departure Airport
Arrival Airport
Navaid (VOR, NDB)
Fix

Horizontal Profiles

Position Reports

Time Latitude Longitude Heading Altitude Ground
Speed
06-Jan-21 16:32 34.205928 -118.493560 1 804ft 0kts
06-Jan-21 16:33 34.205928 -118.493560 1 804ft 0kts
06-Jan-21 16:34 34.205928 -118.493560 1 804ft 0kts
06-Jan-21 16:35 34.205928 -118.493560 1 804ft 0kts
06-Jan-21 16:36 34.205928 -118.493560 1 804ft 0kts
06-Jan-21 16:37 34.205928 -118.493560 1 804ft 0kts
06-Jan-21 16:38 34.205928 -118.493560 1 804ft 0kts
06-Jan-21 16:39 34.205928 -118.493560 1 804ft 0kts
06-Jan-21 16:40 34.205928 -118.493560 1 804ft 0kts
06-Jan-21 16:41 34.205928 -118.493560 1 804ft 0kts
06-Jan-21 16:42 34.205928 -118.493560 1 804ft 0kts
06-Jan-21 16:43 34.205928 -118.493560 1 804ft 0kts
06-Jan-21 16:44 34.205928 -118.493560 1 804ft 0kts
06-Jan-21 16:45 34.205928 -118.493560 1 804ft 0kts
06-Jan-21 16:46 34.205928 -118.493560 1 804ft 0kts
06-Jan-21 16:47 34.206565 -118.492432 92 804ft 8kts
06-Jan-21 16:48 34.208020 -118.491368 356 804ft 10kts
06-Jan-21 16:49 34.210018 -118.490558 132 804ft 13kts
06-Jan-21 16:50 34.188851 -118.488397 174 1595ft 109kts
06-Jan-21 16:51 34.166707 -118.456850 124 3111ft 154kts
06-Jan-21 16:52 34.168253 -118.410350 15 5188ft 180kts
06-Jan-21 16:53 34.216052 -118.412748 352 7353ft 175kts
06-Jan-21 16:54 34.263127 -118.417831 352 9513ft 164kts
06-Jan-21 16:55 34.308798 -118.425078 352 11591ft 169kts
06-Jan-21 16:56 34.356986 -118.430467 352 13032ft 194kts
06-Jan-21 16:57 34.412057 -118.434129 18 14117ft 209kts
06-Jan-21 16:58 34.403962 -118.369480 124 15039ft 252kts
06-Jan-21 16:59 34.405097 -118.295907 31 15061ft 255kts
06-Jan-21 17:00 34.441013 -118.224148 91 15059ft 283kts
06-Jan-21 17:01 34.430382 -118.128693 94 15057ft 287kts
06-Jan-21 17:02 34.419131 -118.032412 94 15058ft 288kts
06-Jan-21 17:03 34.407897 -117.935779 94 15041ft 289kts
06-Jan-21 17:04 34.396718 -117.839179 94 15021ft 289kts
06-Jan-21 17:06 34.385558 -117.742612 94 15038ft 286kts
06-Jan-21 17:07 34.374562 -117.647688 94 15057ft 285kts
06-Jan-21 17:08 34.363567 -117.552376 94 15063ft 286kts
06-Jan-21 17:09 34.352536 -117.456464 94 15059ft 287kts
06-Jan-21 17:10 34.313841 -117.371697 118 15051ft 291kts
06-Jan-21 17:11 34.273548 -117.286394 117 15028ft 291kts
06-Jan-21 17:12 34.234216 -117.202011 117 15019ft 287kts
06-Jan-21 17:13 34.194755 -117.117520 117 15019ft 289kts
06-Jan-21 17:14 34.155064 -117.032703 118 15019ft 289kts
06-Jan-21 17:15 34.115408 -116.948217 118 15019ft 288kts
06-Jan-21 17:16 34.075810 -116.864058 119 14920ft 288kts
06-Jan-21 17:17 34.035492 -116.778552 119 13998ft 296kts
06-Jan-21 17:18 33.994417 -116.691655 118 12172ft 300kts
06-Jan-21 17:18 33.960456 -116.619917 120 9488ft 289kts
06-Jan-21 17:20 33.914922 -116.527681 129 4880ft 260kts
06-Jan-21 17:21 33.868699 -116.472032 140 3952ft 224kts
06-Jan-21 17:21 33.829514 -116.436872 148 3788ft 173kts
06-Jan-21 17:23 33.794146 -116.449535 255 1948ft 118kts
06-Jan-21 17:23 33.799608 -116.479719 312 929ft 112kts
06-Jan-21 17:24 33.820008 -116.499131 322 475ft 85kts
06-Jan-21 17:26 33.827417 -116.507208 179 419ft 0kts

Navigation Log

Ident Type
Flight plan parsing failed, navigation log unavailable